createdAt,value
2023-03-05T00:00:27.129Z,3.98
2023-03-05T00:02:56.932Z,3.96
2023-03-05T00:05:23.634Z,4.03
2023-03-05T00:07:51.240Z,3.90
2023-03-05T00:10:17.950Z,3.85
2023-03-05T00:12:47.763Z,3.82
2023-03-05T00:15:14.392Z,3.87
2023-03-05T00:17:43.519Z,3.86
2023-03-05T00:20:10.610Z,4.03
2023-03-05T00:22:37.570Z,3.78
2023-03-05T00:25:05.330Z,3.83
2023-03-05T00:27:32.530Z,3.78
2023-03-05T00:30:06.682Z,3.83
2023-03-05T00:32:33.382Z,3.74
2023-03-05T00:35:00.203Z,3.65
2023-03-05T00:37:29.112Z,3.73
2023-03-05T00:39:55.840Z,3.61
2023-03-05T00:42:22.808Z,3.70
2023-03-05T00:44:51.026Z,3.62
2023-03-05T00:47:18.596Z,3.48
2023-03-05T00:49:51.556Z,3.60
2023-03-05T00:52:18.728Z,3.61
2023-03-05T00:54:45.342Z,3.62
2023-03-05T00:57:11.953Z,3.61
2023-03-05T00:59:39.372Z,3.57
2023-03-05T01:02:06.213Z,3.52
2023-03-05T01:04:32.956Z,3.43
2023-03-05T01:06:59.686Z,3.54
2023-03-05T01:09:26.302Z,3.52
2023-03-05T01:12:00.193Z,3.57
2023-03-05T01:14:28.374Z,3.65
2023-03-05T01:16:54.943Z,3.57
2023-03-05T01:19:21.840Z,3.57
2023-03-05T01:21:48.414Z,3.45
2023-03-05T01:24:25.499Z,3.42
2023-03-05T01:26:52.119Z,3.46
2023-03-05T01:29:18.772Z,3.42
2023-03-05T01:31:46.254Z,3.42
2023-03-05T01:34:13.762Z,3.40
2023-03-05T01:36:43.686Z,3.36
2023-03-05T01:39:10.677Z,3.33
2023-03-05T01:41:37.381Z,3.37
2023-03-05T01:44:04.842Z,3.43
2023-03-05T01:46:37.863Z,3.42
2023-03-05T01:49:04.808Z,3.45
2023-03-05T01:51:35.341Z,3.52
2023-03-05T01:54:03.241Z,3.49
2023-03-05T01:56:30.857Z,3.55
2023-03-05T01:59:03.722Z,3.39
2023-03-05T02:01:38.461Z,3.45
2023-03-05T02:04:05.540Z,3.47
2023-03-05T02:06:32.179Z,3.65
2023-03-05T02:08:59.539Z,3.57
2023-03-05T02:11:26.392Z,3.65
2023-03-05T02:13:54.286Z,3.51
2023-03-05T02:16:22.388Z,3.44
2023-03-05T02:18:49.137Z,3.60
2023-03-05T02:21:26.485Z,3.46
2023-03-05T02:24:00.917Z,3.30
2023-03-05T02:26:27.869Z,3.44
2023-03-05T02:28:57.237Z,3.49
2023-03-05T02:31:25.181Z,3.46
2023-03-05T02:33:53.970Z,3.53
2023-03-05T02:36:21.712Z,3.53
2023-03-05T02:38:51.123Z,3.49
2023-03-05T02:41:17.787Z,3.53
2023-03-05T02:43:47.760Z,3.48
2023-03-05T02:46:14.830Z,3.49
2023-03-05T02:48:41.463Z,3.50
2023-03-05T02:51:14.468Z,3.51
2023-03-05T02:53:43.029Z,3.49
2023-03-05T02:56:12.152Z,3.43
2023-03-05T02:58:38.916Z,3.42
2023-03-05T03:01:05.528Z,3.58
2023-03-05T03:03:32.282Z,3.63
2023-03-05T03:05:58.991Z,3.60
2023-03-05T03:08:25.655Z,3.55
2023-03-05T03:10:52.180Z,3.51
2023-03-05T03:13:21.120Z,3.53
2023-03-05T03:15:47.916Z,3.48
2023-03-05T03:18:14.494Z,3.45
2023-03-05T03:20:43.431Z,3.44
2023-03-05T03:23:12.514Z,3.44
2023-03-05T03:25:41.495Z,3.39
2023-03-05T03:28:08.149Z,3.33
2023-03-05T03:30:34.710Z,3.32
2023-03-05T03:33:01.532Z,3.30
2023-03-05T03:35:28.254Z,3.49
2023-03-05T03:37:54.943Z,3.40
2023-03-05T03:40:21.619Z,3.49
2023-03-05T03:42:48.278Z,3.65
2023-03-05T03:45:14.936Z,3.51
2023-03-05T03:47:41.602Z,3.57
2023-03-05T03:50:08.689Z,3.46
2023-03-05T03:52:35.358Z,3.58
2023-03-05T03:55:04.714Z,3.42
2023-03-05T03:57:33.613Z,3.43
2023-03-05T04:00:00.314Z,3.55
2023-03-05T04:02:27.290Z,3.43
2023-03-05T04:04:54.113Z,3.55
2023-03-05T04:07:20.693Z,3.38
2023-03-05T04:09:47.317Z,3.24
2023-03-05T04:12:18.053Z,3.45
2023-03-05T04:14:48.670Z,3.37
2023-03-05T04:17:16.326Z,3.52
2023-03-05T04:19:43.323Z,3.42
2023-03-05T04:22:16.760Z,3.35
2023-03-05T04:24:43.462Z,3.37
2023-03-05T04:27:10.514Z,3.38
2023-03-05T04:29:37.360Z,3.43
2023-03-05T04:32:04.176Z,3.43
2023-03-05T04:34:30.821Z,3.42
2023-03-05T04:36:57.397Z,3.29
2023-03-05T04:39:27.276Z,3.40
2023-03-05T04:41:53.897Z,3.29
2023-03-05T04:44:23.208Z,3.08
2023-03-05T04:46:49.970Z,3.09
2023-03-05T04:49:16.575Z,2.88
2023-03-05T04:51:45.557Z,3.05
2023-03-05T04:54:12.123Z,3.11
2023-03-05T04:56:38.741Z,3.49
2023-03-05T04:59:07.623Z,3.81
2023-03-05T05:01:35.538Z,3.44
2023-03-05T05:04:07.299Z,3.76
2023-03-05T05:06:33.922Z,3.68
2023-03-05T05:09:00.579Z,3.53
2023-03-05T05:11:27.281Z,3.46
2023-03-05T05:13:53.858Z,3.68
2023-03-05T05:16:20.613Z,3.48
2023-03-05T05:18:47.233Z,3.38
2023-03-05T05:21:14.526Z,3.26
2023-03-05T05:23:41.122Z,3.40
2023-03-05T05:26:08.434Z,3.43
2023-03-05T05:28:35.407Z,3.20
2023-03-05T05:31:06.802Z,3.30
2023-03-05T05:33:33.418Z,3.30
2023-03-05T05:36:00.051Z,3.39
2023-03-05T05:38:26.740Z,3.42
2023-03-05T05:40:53.355Z,3.42
2023-03-05T05:43:20.013Z,3.20
2023-03-05T05:45:46.807Z,3.42
2023-03-05T05:48:13.448Z,3.32
2023-03-05T05:50:41.198Z,3.57
2023-03-05T05:53:07.862Z,3.43
2023-03-05T05:55:34.416Z,3.36
2023-03-05T05:58:01.001Z,3.23
2023-03-05T06:00:28.659Z,3.27
2023-03-05T06:02:55.327Z,3.35
2023-03-05T06:05:22.035Z,3.37
2023-03-05T06:07:48.754Z,3.54
2023-03-05T06:10:17.441Z,3.29
2023-03-05T06:12:44.052Z,3.36
2023-03-05T06:15:10.727Z,3.54
2023-03-05T06:17:37.429Z,3.63
2023-03-05T06:20:05.274Z,3.60
2023-03-05T06:22:31.960Z,3.47
2023-03-05T06:24:58.509Z,3.47
2023-03-05T06:27:27.932Z,3.56
2023-03-05T06:29:56.701Z,3.78
2023-03-05T06:32:23.516Z,3.60
2023-03-05T06:34:50.368Z,3.50
2023-03-05T06:37:17.178Z,3.62
2023-03-05T06:39:43.834Z,3.53
2023-03-05T06:42:10.457Z,3.68
2023-03-05T06:44:40.812Z,3.55
2023-03-05T06:47:09.280Z,3.42
2023-03-05T06:49:36.271Z,3.46
2023-03-05T06:52:03.413Z,3.68
2023-03-05T06:54:29.968Z,3.66
2023-03-05T06:56:56.682Z,3.66
2023-03-05T06:59:23.483Z,3.76
2023-03-05T07:01:50.100Z,3.94
2023-03-05T07:04:17.189Z,3.79
2023-03-05T07:06:44.015Z,3.81
2023-03-05T07:09:13.169Z,3.74
2023-03-05T07:11:42.067Z,3.77
2023-03-05T07:14:08.987Z,3.53
2023-03-05T07:16:35.665Z,3.47
2023-03-05T07:19:03.842Z,3.33
2023-03-05T07:21:31.746Z,3.40
2023-03-05T07:23:59.587Z,3.48
2023-03-05T07:26:26.833Z,3.58
2023-03-05T07:28:54.013Z,3.78
2023-03-05T07:31:24.975Z,3.52
2023-03-05T07:33:51.773Z,3.53
2023-03-05T07:36:20.335Z,3.68
2023-03-05T07:38:47.148Z,3.67
2023-03-05T07:41:19.691Z,3.77
2023-03-05T07:43:47.326Z,3.91
2023-03-05T07:46:15.055Z,3.95
2023-03-05T07:48:41.698Z,4.09
2023-03-05T07:51:12.480Z,3.94
2023-03-05T07:53:39.150Z,4.03
2023-03-05T07:56:06.004Z,4.20
2023-03-05T07:58:32.821Z,4.22
2023-03-05T08:00:59.496Z,4.25
2023-03-05T08:03:26.229Z,4.10
2023-03-05T08:05:52.943Z,4.29
2023-03-05T08:08:19.786Z,4.37
2023-03-05T08:10:46.400Z,4.35
2023-03-05T08:13:15.202Z,4.26
2023-03-05T08:15:44.623Z,4.36
2023-03-05T08:18:13.607Z,4.42
2023-03-05T08:20:40.198Z,4.42
2023-03-05T08:23:06.860Z,4.22
2023-03-05T08:25:33.928Z,4.14
2023-03-05T08:28:02.890Z,4.16
2023-03-05T08:30:29.692Z,4.29
2023-03-05T08:32:57.061Z,4.49
2023-03-05T08:35:23.856Z,4.67
2023-03-05T08:37:50.690Z,4.49
2023-03-05T08:40:20.700Z,4.40
2023-03-05T08:42:47.553Z,4.35
2023-03-05T08:45:17.292Z,4.06
2023-03-05T08:47:45.283Z,3.92
2023-03-05T08:50:12.086Z,3.75
2023-03-05T08:52:39.276Z,3.78
2023-03-05T08:55:06.457Z,4.07
2023-03-05T08:57:33.165Z,4.31
2023-03-05T08:59:59.693Z,4.18
2023-03-05T09:02:26.394Z,4.36
2023-03-05T09:04:53.307Z,4.44
2023-03-05T09:07:19.913Z,4.20
2023-03-05T09:09:47.336Z,4.18
2023-03-05T09:12:15.991Z,4.06
2023-03-05T09:14:42.835Z,4.08
2023-03-05T09:17:09.452Z,4.30
2023-03-05T09:19:36.067Z,4.21
2023-03-05T09:22:02.834Z,4.30
2023-03-05T09:24:29.394Z,4.06
2023-03-05T09:26:58.755Z,3.86
2023-03-05T09:29:26.753Z,4.06
2023-03-05T09:31:53.498Z,4.26
2023-03-05T09:34:20.165Z,4.47
2023-03-05T09:36:46.783Z,4.44
2023-03-05T09:39:15.955Z,4.30
2023-03-05T09:41:54.878Z,4.27
2023-03-05T09:44:41.609Z,4.47
2023-03-05T09:47:29.799Z,4.97
2023-03-05T09:49:56.528Z,5.15
2023-03-05T09:52:26.159Z,5.02
2023-03-05T09:54:54.963Z,4.92
2023-03-05T09:57:32.383Z,4.74
2023-03-05T10:00:10.570Z,4.93
2023-03-05T10:02:46.054Z,4.72
2023-03-05T10:05:15.588Z,4.52
2023-03-05T10:07:45.185Z,4.88
2023-03-05T10:10:14.334Z,4.86
2023-03-05T10:12:44.915Z,4.87
2023-03-05T10:15:13.954Z,4.79
2023-03-05T10:18:00.054Z,4.55
2023-03-05T10:20:32.529Z,4.63
2023-03-05T10:22:59.154Z,4.89
2023-03-05T10:25:28.744Z,4.91
2023-03-05T10:28:00.817Z,5.22
2023-03-05T10:30:41.296Z,5.54
2023-03-05T10:33:07.881Z,6.28
2023-03-05T10:35:49.029Z,6.17
2023-03-05T10:38:22.762Z,5.53
2023-03-05T10:40:52.931Z,5.66
2023-03-05T10:43:38.046Z,5.89
2023-03-05T10:46:05.141Z,5.95
2023-03-05T10:48:35.446Z,6.49
2023-03-05T10:51:19.212Z,6.38
2023-03-05T10:53:45.902Z,6.49
2023-03-05T10:56:12.576Z,6.92
2023-03-05T10:58:39.413Z,7.95
2023-03-05T11:01:18.900Z,8.80
2023-03-05T11:03:47.745Z,9.08
2023-03-05T11:06:14.763Z,8.96
2023-03-05T11:08:42.489Z,7.94
2023-03-05T11:11:12.135Z,6.80
2023-03-05T11:13:48.416Z,6.06
2023-03-05T11:16:21.078Z,5.90
2023-03-05T11:18:47.986Z,5.47
2023-03-05T11:21:19.631Z,5.46
2023-03-05T11:24:25.095Z,5.04
2023-03-05T11:26:53.161Z,5.14
2023-03-05T11:29:26.217Z,5.73
2023-03-05T11:31:53.480Z,5.92
2023-03-05T11:34:20.018Z,6.57
2023-03-05T11:36:58.803Z,6.92
2023-03-05T11:39:26.168Z,7.26
2023-03-05T11:41:54.349Z,7.01
2023-03-05T11:44:22.437Z,6.95
2023-03-05T11:46:51.846Z,7.09
2023-03-05T11:49:20.946Z,6.76
2023-03-05T11:52:08.340Z,6.49
2023-03-05T11:55:05.610Z,6.30
2023-03-05T11:57:39.469Z,6.11
2023-03-05T12:00:13.089Z,5.77
2023-03-05T12:02:40.042Z,5.91
2023-03-05T12:05:14.166Z,5.93
2023-03-05T12:07:43.258Z,5.87
2023-03-05T12:10:20.895Z,5.96
2023-03-05T12:12:47.806Z,5.52
2023-03-05T12:15:35.285Z,5.79
2023-03-05T12:18:20.869Z,5.92
2023-03-05T12:21:07.845Z,5.90
2023-03-05T12:23:45.099Z,6.00
2023-03-05T12:26:11.825Z,5.85
2023-03-05T12:28:41.782Z,5.95
2023-03-05T12:31:08.506Z,5.77
2023-03-05T12:33:37.205Z,5.85
2023-03-05T12:36:22.586Z,6.35
2023-03-05T12:38:52.014Z,6.44
2023-03-05T12:41:26.807Z,6.54
2023-03-05T12:44:06.883Z,6.21
2023-03-05T12:46:38.303Z,6.05
2023-03-05T12:49:20.480Z,6.04
2023-03-05T12:51:48.685Z,6.28
2023-03-05T12:54:33.810Z,6.95
2023-03-05T12:57:06.338Z,6.95
2023-03-05T12:59:39.079Z,6.75
2023-03-05T13:02:16.813Z,6.52
2023-03-05T13:04:45.921Z,7.00
2023-03-05T13:07:16.716Z,6.73
2023-03-05T13:09:52.366Z,7.25
2023-03-05T13:12:21.699Z,6.73
2023-03-05T13:14:55.938Z,6.30
2023-03-05T13:17:44.512Z,6.10
2023-03-05T13:20:30.109Z,6.63
2023-03-05T13:23:05.953Z,7.33
2023-03-05T13:25:33.323Z,7.77
2023-03-05T13:28:04.254Z,7.07
2023-03-05T13:30:34.837Z,7.19
2023-03-05T13:33:03.444Z,7.03
2023-03-05T13:35:36.099Z,7.81
2023-03-05T13:38:03.160Z,7.34
2023-03-05T13:40:31.148Z,6.83
2023-03-05T13:43:12.351Z,6.99
2023-03-05T13:45:40.106Z,6.30
2023-03-05T13:48:10.047Z,6.08
2023-03-05T13:50:40.472Z,6.13
2023-03-05T13:53:16.853Z,6.09
2023-03-05T13:55:45.767Z,5.89
2023-03-05T13:58:31.126Z,5.76
2023-03-05T14:01:04.800Z,5.68
2023-03-05T14:03:34.880Z,5.75
2023-03-05T14:06:09.924Z,5.74
2023-03-05T14:08:36.777Z,5.80
2023-03-05T14:11:14.606Z,5.82
2023-03-05T14:13:44.236Z,5.86
2023-03-05T14:16:26.180Z,6.17
2023-03-05T14:19:01.184Z,6.06
2023-03-05T14:21:45.879Z,6.03
2023-03-05T14:24:23.446Z,6.26
2023-03-05T14:26:59.125Z,6.75
2023-03-05T14:29:29.295Z,6.59
2023-03-05T14:32:00.591Z,6.57
2023-03-05T14:34:30.063Z,6.43
2023-03-05T14:37:00.212Z,6.48
2023-03-05T14:39:30.954Z,6.47
2023-03-05T14:42:33.435Z,6.36
2023-03-05T14:45:01.361Z,6.37
2023-03-05T14:47:28.206Z,6.61
2023-03-05T14:49:54.967Z,6.67
2023-03-05T14:52:23.504Z,6.67
2023-03-05T14:54:50.610Z,6.32
2023-03-05T14:57:19.905Z,6.19
2023-03-05T14:59:48.019Z,6.24
2023-03-05T15:02:23.817Z,6.18
2023-03-05T15:04:50.928Z,6.20
2023-03-05T15:07:25.071Z,6.18
2023-03-05T15:12:39.882Z,6.11
2023-03-05T15:15:09.853Z,6.33
2023-03-05T15:17:44.106Z,6.25
2023-03-05T15:20:14.116Z,6.48
2023-03-05T15:22:40.776Z,6.40
2023-03-05T15:25:08.533Z,6.44
2023-03-05T15:27:35.187Z,6.57
2023-03-05T15:30:01.936Z,6.27
2023-03-05T15:32:30.737Z,6.08
2023-03-05T15:35:00.774Z,6.13
2023-03-05T15:37:27.531Z,6.44
2023-03-05T15:39:56.467Z,6.36
2023-03-05T15:42:26.392Z,6.41
2023-03-05T15:44:53.158Z,6.42
2023-03-05T15:47:19.766Z,6.23
2023-03-05T15:49:46.471Z,6.20
2023-03-05T15:52:14.276Z,6.27
2023-03-05T15:54:40.896Z,6.19
2023-03-05T15:57:09.308Z,6.16
2023-03-05T15:59:36.078Z,6.23
2023-03-05T16:02:03.399Z,6.13
2023-03-05T16:04:30.444Z,6.22
2023-03-05T16:06:59.092Z,6.30
2023-03-05T16:09:26.810Z,6.28
2023-03-05T16:11:53.451Z,5.96
2023-03-05T16:14:23.401Z,5.82
2023-03-05T16:16:50.918Z,5.81
2023-03-05T16:19:18.388Z,5.80
2023-03-05T16:21:45.225Z,5.92
2023-03-05T16:24:12.034Z,6.04
2023-03-05T16:26:39.928Z,6.04
2023-03-05T16:29:07.360Z,5.96
2023-03-05T16:31:38.290Z,5.93
2023-03-05T16:34:05.455Z,5.90
2023-03-05T16:36:35.617Z,5.95
2023-03-05T16:39:04.691Z,6.05
2023-03-05T16:41:35.189Z,6.12
2023-03-05T16:44:02.215Z,6.04
2023-03-05T16:46:30.265Z,6.11
2023-03-05T16:48:57.858Z,6.13
2023-03-05T16:51:25.862Z,6.11
2023-03-05T16:53:59.557Z,6.25
2023-03-05T16:56:26.297Z,6.04
2023-03-05T16:58:54.847Z,6.07
2023-03-05T17:01:30.407Z,5.99
2023-03-05T17:03:58.888Z,6.13
2023-03-05T17:06:26.649Z,6.27
2023-03-05T17:09:02.180Z,6.11
2023-03-05T17:11:28.906Z,6.11
2023-03-05T17:13:56.456Z,6.03
2023-03-05T17:16:28.290Z,6.18
2023-03-05T17:18:55.479Z,6.00
2023-03-05T17:21:22.888Z,5.98
2023-03-05T17:23:50.173Z,6.12
2023-03-05T17:26:19.001Z,6.00
2023-03-05T17:28:46.521Z,6.08
2023-03-05T17:31:14.111Z,6.27
2023-03-05T17:33:42.059Z,6.24
2023-03-05T17:36:15.765Z,6.10
2023-03-05T17:38:49.953Z,6.19
2023-03-05T17:41:19.142Z,5.88
2023-03-05T17:43:46.354Z,5.96
2023-03-05T17:46:14.002Z,5.70
2023-03-05T17:48:42.037Z,5.57
2023-03-05T17:51:10.722Z,5.56
2023-03-05T17:53:39.513Z,5.73
2023-03-05T17:56:07.284Z,5.77
2023-03-05T17:58:34.542Z,5.73
2023-03-05T18:01:04.213Z,5.71
2023-03-05T18:03:33.959Z,5.63
2023-03-05T18:06:01.700Z,5.89
2023-03-05T18:08:42.687Z,5.58
2023-03-05T18:11:12.808Z,5.73
2023-03-05T18:13:40.932Z,5.66
2023-03-05T18:16:11.581Z,5.52
2023-03-05T18:18:38.863Z,5.51
2023-03-05T18:21:07.740Z,5.39
2023-03-05T18:23:35.308Z,5.56
2023-03-05T18:26:02.158Z,5.85
2023-03-05T18:28:29.911Z,5.65
2023-03-05T18:30:57.476Z,5.58
2023-03-05T18:33:26.593Z,5.42
2023-03-05T18:35:54.832Z,5.58
2023-03-05T18:38:22.441Z,5.46
2023-03-05T18:40:51.472Z,5.25
2023-03-05T18:43:21.593Z,5.40
2023-03-05T18:45:52.481Z,5.56
2023-03-05T18:48:22.430Z,5.22
2023-03-05T18:50:50.560Z,5.15
2023-03-05T18:53:19.802Z,5.20
2023-03-05T18:55:54.359Z,5.42
2023-03-05T18:58:23.107Z,5.05
2023-03-05T19:00:52.027Z,5.22
2023-03-05T19:03:23.152Z,5.21
2023-03-05T19:06:02.436Z,5.15
2023-03-05T19:08:29.958Z,5.03
2023-03-05T19:10:59.028Z,5.09
2023-03-05T19:13:35.893Z,5.09
2023-03-05T19:16:19.901Z,5.05
2023-03-05T19:19:19.270Z,5.18
2023-03-05T19:21:51.044Z,5.02
2023-03-05T19:24:17.957Z,5.10
2023-03-05T19:26:45.134Z,5.13
2023-03-05T19:29:12.660Z,5.14
2023-03-05T19:31:39.569Z,5.13
2023-03-05T19:34:09.516Z,5.18
2023-03-05T19:36:36.852Z,5.39
2023-03-05T19:39:07.787Z,5.16
2023-03-05T19:41:34.871Z,5.16
2023-03-05T19:44:01.957Z,5.07
2023-03-05T19:46:28.751Z,5.29
2023-03-05T19:48:55.522Z,5.10
2023-03-05T19:51:23.082Z,5.09
2023-03-05T19:53:50.254Z,5.10
2023-03-05T19:56:17.585Z,5.06
2023-03-05T19:58:49.061Z,4.95
2023-03-05T20:01:20.564Z,5.14
2023-03-05T20:03:48.530Z,4.99
2023-03-05T20:06:15.368Z,5.14
2023-03-05T20:08:44.244Z,5.33
2023-03-05T20:11:11.663Z,5.13
2023-03-05T20:13:48.226Z,5.20
2023-03-05T20:16:15.876Z,5.31
2023-03-05T20:18:52.629Z,5.37
2023-03-05T20:21:30.145Z,5.23
2023-03-05T20:23:58.219Z,5.28
2023-03-05T20:26:26.107Z,5.10
2023-03-05T20:28:53.760Z,5.10
2023-03-05T20:31:21.496Z,4.88
2023-03-05T20:33:48.233Z,4.93
2023-03-05T20:36:14.845Z,5.09
2023-03-05T20:38:44.015Z,4.95
2023-03-05T20:41:11.620Z,4.92
2023-03-05T20:43:44.797Z,4.99
2023-03-05T20:46:31.052Z,4.95
2023-03-05T20:48:59.147Z,4.96
2023-03-05T20:51:30.003Z,4.93
2023-03-05T20:53:58.665Z,5.05
2023-03-05T20:56:26.926Z,4.87
2023-03-05T20:59:05.595Z,4.81
2023-03-05T21:01:33.935Z,4.89
2023-03-05T21:04:01.521Z,4.82
2023-03-05T21:06:32.239Z,4.89
2023-03-05T21:08:59.124Z,4.83
2023-03-05T21:11:25.734Z,4.94
2023-03-05T21:13:52.406Z,4.96
2023-03-05T21:16:20.860Z,4.83
2023-03-05T21:18:48.183Z,4.87
2023-03-05T21:21:14.956Z,5.00
2023-03-05T21:23:41.694Z,5.03
2023-03-05T21:26:09.182Z,4.94
2023-03-05T21:28:36.015Z,4.91
2023-03-05T21:31:09.186Z,4.88
2023-03-05T21:33:36.274Z,5.00
2023-03-05T21:36:04.012Z,4.91
2023-03-05T21:38:31.068Z,4.97
2023-03-05T21:40:58.658Z,5.04
2023-03-05T21:43:25.999Z,4.87
2023-03-05T21:45:56.655Z,4.96
2023-03-05T21:48:23.781Z,4.93
2023-03-05T21:50:51.227Z,4.99
2023-03-05T21:53:18.647Z,5.13
2023-03-05T21:56:03.300Z,5.22
2023-03-05T21:58:33.500Z,5.04
2023-03-05T22:01:00.484Z,5.04
2023-03-05T22:03:28.773Z,4.93
2023-03-05T22:05:58.610Z,4.95
2023-03-05T22:08:25.326Z,4.95
2023-03-05T22:10:59.705Z,4.94
2023-03-05T22:13:26.366Z,5.07
2023-03-05T22:15:54.170Z,4.96
2023-03-05T22:18:25.033Z,4.99
2023-03-05T22:20:52.026Z,5.06
2023-03-05T22:23:19.361Z,4.91
2023-03-05T22:25:46.021Z,4.88
2023-03-05T22:28:12.896Z,4.97
2023-03-05T22:30:46.485Z,4.98
2023-03-05T22:33:13.518Z,5.01
2023-03-05T22:35:41.024Z,5.28
2023-03-05T22:38:08.979Z,5.19
2023-03-05T22:40:37.556Z,5.23
2023-03-05T22:43:04.577Z,4.98
2023-03-05T22:45:31.332Z,4.81
2023-03-05T22:48:00.937Z,5.02
2023-03-05T22:50:27.690Z,4.95
2023-03-05T22:52:54.763Z,4.91
2023-03-05T22:55:23.058Z,4.92
2023-03-05T22:57:49.626Z,4.68
2023-03-05T23:00:21.872Z,4.78
2023-03-05T23:02:48.535Z,4.93
2023-03-05T23:05:15.105Z,4.92
2023-03-05T23:07:42.866Z,4.94
2023-03-05T23:10:09.489Z,5.04
2023-03-05T23:12:37.238Z,4.99
2023-03-05T23:15:09.349Z,4.87
2023-03-05T23:17:36.190Z,4.88
2023-03-05T23:20:05.133Z,5.04
2023-03-05T23:22:31.751Z,5.00
2023-03-05T23:25:01.450Z,5.09
2023-03-05T23:27:28.122Z,5.03
2023-03-05T23:30:16.586Z,4.79
2023-03-05T23:32:44.473Z,5.08
2023-03-05T23:35:14.236Z,4.89
2023-03-05T23:37:41.394Z,5.06
2023-03-05T23:40:11.984Z,4.90
2023-03-05T23:42:39.143Z,4.82
2023-03-05T23:45:06.927Z,5.01
2023-03-05T23:47:37.063Z,4.88
2023-03-05T23:50:08.340Z,4.97
2023-03-05T23:52:35.764Z,5.18
2023-03-05T23:55:02.402Z,4.99
2023-03-05T23:57:29.084Z,4.87
2023-03-05T23:59:55.799Z,4.93
